createdAt,value
2023-02-13T00:01:08.150Z,7.40
2023-02-13T00:03:36.000Z,7.40
2023-02-13T00:06:03.883Z,7.40
2023-02-13T00:08:31.807Z,7.40
2023-02-13T00:10:59.823Z,7.40
2023-02-13T00:13:29.187Z,7.40
2023-02-13T00:15:58.503Z,7.40
2023-02-13T00:18:27.091Z,7.40
2023-02-13T00:20:59.612Z,7.40
2023-02-13T00:23:27.482Z,7.30
2023-02-13T00:25:55.374Z,7.30
2023-02-13T00:28:23.337Z,7.30
2023-02-13T00:30:52.919Z,7.30
2023-02-13T00:33:21.364Z,7.30
2023-02-13T00:35:49.203Z,7.30
2023-02-13T00:38:17.074Z,7.30
2023-02-13T00:40:47.582Z,7.30
2023-02-13T00:43:15.480Z,7.30
2023-02-13T00:45:44.446Z,7.30
2023-02-13T00:48:13.773Z,7.30
2023-02-13T00:50:41.602Z,7.20
2023-02-13T00:53:10.903Z,7.20
2023-02-13T00:55:38.971Z,7.30
2023-02-13T00:58:10.096Z,7.30
2023-02-13T01:00:38.179Z,7.30
2023-02-13T01:03:06.896Z,7.30
2023-02-13T01:05:36.448Z,7.30
2023-02-13T01:08:04.569Z,7.30
2023-02-13T01:10:33.065Z,7.30
2023-02-13T01:13:01.023Z,7.30
2023-02-13T01:15:28.977Z,7.30
2023-02-13T01:17:57.559Z,7.30
2023-02-13T01:20:27.729Z,7.30
2023-02-13T01:22:58.057Z,7.20
2023-02-13T01:25:27.190Z,7.20
2023-02-13T01:27:55.146Z,7.20
2023-02-13T01:30:23.055Z,7.20
2023-02-13T01:32:50.921Z,7.20
2023-02-13T01:35:18.880Z,7.20
2023-02-13T01:37:46.768Z,7.20
2023-02-13T01:40:17.711Z,7.20
2023-02-13T01:42:45.702Z,7.20
2023-02-13T01:45:32.116Z,7.20
2023-02-13T01:48:05.716Z,7.20
2023-02-13T01:50:36.398Z,7.20
2023-02-13T01:53:10.098Z,7.20
2023-02-13T01:55:44.811Z,7.20
2023-02-13T01:58:17.293Z,7.20
2023-02-13T02:00:49.688Z,7.10
2023-02-13T02:03:22.545Z,7.10
2023-02-13T02:05:53.137Z,7.20
2023-02-13T02:08:21.620Z,7.20
2023-02-13T02:10:56.928Z,7.10
2023-02-13T02:13:27.516Z,7.10
2023-02-13T02:15:55.553Z,7.10
2023-02-13T02:18:25.227Z,7.10
2023-02-13T02:21:25.008Z,7.10
2023-02-13T02:24:20.609Z,7.10
2023-02-13T02:27:24.336Z,7.10
2023-02-13T02:30:42.744Z,7.10
2023-02-13T02:33:19.656Z,7.10
2023-02-13T02:36:00.937Z,7.10
2023-02-13T02:38:49.288Z,7.10
2023-02-13T02:41:40.400Z,7.10
2023-02-13T02:44:18.400Z,7.00
2023-02-13T02:47:11.844Z,7.00
2023-02-13T02:50:02.143Z,7.00
2023-02-13T02:52:41.743Z,7.00
2023-02-13T02:55:18.180Z,7.00
2023-02-13T02:58:20.454Z,7.00
2023-02-13T03:01:08.722Z,7.00
2023-02-13T03:03:54.635Z,7.00
2023-02-13T03:06:27.580Z,6.90
2023-02-13T03:09:17.214Z,6.90
2023-02-13T03:12:08.138Z,6.80
2023-02-13T03:14:36.711Z,6.80
2023-02-13T03:17:22.425Z,6.80
2023-02-13T03:20:15.308Z,6.80
2023-02-13T03:22:54.663Z,6.70
2023-02-13T03:25:34.352Z,6.70
2023-02-13T03:28:30.016Z,6.70
2023-02-13T03:31:09.572Z,6.70
2023-02-13T03:33:58.053Z,6.80
2023-02-13T03:36:52.400Z,6.80
2023-02-13T03:39:28.887Z,6.80
2023-02-13T03:42:02.667Z,6.80
2023-02-13T03:44:35.849Z,6.80
2023-02-13T03:47:06.652Z,6.80
2023-02-13T03:49:56.445Z,6.80
2023-02-13T03:52:30.230Z,6.80
2023-02-13T03:55:21.224Z,6.80
2023-02-13T03:58:09.764Z,6.80
2023-02-13T04:00:43.152Z,6.80
2023-02-13T04:03:18.842Z,6.70
2023-02-13T04:05:51.096Z,6.70
2023-02-13T04:08:19.195Z,6.70
2023-02-13T04:10:53.798Z,6.70
2023-02-13T04:13:28.826Z,6.70
2023-02-13T04:16:01.216Z,6.70
2023-02-13T04:18:31.823Z,6.70
2023-02-13T04:21:03.403Z,6.70
2023-02-13T04:23:31.314Z,6.70
2023-02-13T04:26:03.311Z,6.70
2023-02-13T04:28:31.570Z,6.70
2023-02-13T04:31:00.037Z,6.60
2023-02-13T04:33:28.233Z,6.60
2023-02-13T04:35:56.894Z,6.50
2023-02-13T04:38:24.937Z,6.50
2023-02-13T04:40:52.812Z,6.50
2023-02-13T04:43:22.069Z,6.40
2023-02-13T04:45:50.276Z,6.40
2023-02-13T04:48:18.400Z,6.40
2023-02-13T04:50:46.268Z,6.40
2023-02-13T04:53:14.176Z,6.30
2023-02-13T04:55:42.028Z,6.30
2023-02-13T04:58:09.931Z,6.30
2023-02-13T05:00:39.117Z,6.30
2023-02-13T05:03:07.691Z,6.20
2023-02-13T05:05:36.153Z,6.20
2023-02-13T05:08:04.167Z,6.20
2023-02-13T05:10:32.423Z,6.20
2023-02-13T05:13:00.482Z,6.10
2023-02-13T05:15:28.455Z,6.10
2023-02-13T05:17:57.652Z,6.10
2023-02-13T05:20:25.519Z,6.00
2023-02-13T05:23:12.951Z,6.00
2023-02-13T05:25:43.781Z,6.00
2023-02-13T05:28:25.741Z,6.00
2023-02-13T05:30:53.658Z,6.00
2023-02-13T05:33:22.932Z,6.00
2023-02-13T05:35:50.775Z,5.90
2023-02-13T05:38:18.690Z,5.90
2023-02-13T05:40:46.597Z,6.00
2023-02-13T05:43:14.475Z,6.00
2023-02-13T05:45:42.385Z,6.00
2023-02-13T05:48:10.212Z,5.90
2023-02-13T05:50:39.507Z,5.90
2023-02-13T05:53:07.350Z,5.80
2023-02-13T05:55:35.161Z,5.80
2023-02-13T05:58:03.004Z,5.80
2023-02-13T06:00:30.944Z,5.80
2023-02-13T06:02:58.942Z,5.80
2023-02-13T06:05:26.828Z,5.80
2023-02-13T06:07:55.994Z,5.70
2023-02-13T06:10:23.781Z,5.70
2023-02-13T06:12:51.864Z,5.70
2023-02-13T06:15:19.698Z,5.60
2023-02-13T06:17:48.047Z,5.60
2023-02-13T06:20:16.273Z,5.60
2023-02-13T06:22:44.182Z,5.60
2023-02-13T06:25:13.649Z,5.50
2023-02-13T06:27:42.228Z,5.50
2023-02-13T06:30:11.073Z,5.50
2023-02-13T06:32:38.971Z,5.50
2023-02-13T06:35:07.702Z,5.50
2023-02-13T06:37:35.988Z,5.50
2023-02-13T06:40:04.514Z,5.50
2023-02-13T06:43:04.624Z,5.40
2023-02-13T06:45:35.543Z,5.40
2023-02-13T06:48:03.480Z,5.40
2023-02-13T06:50:31.488Z,5.40
2023-02-13T06:52:59.477Z,5.40
2023-02-13T06:55:27.681Z,5.40
2023-02-13T06:57:57.232Z,5.40
2023-02-13T07:00:27.183Z,5.40
2023-02-13T07:02:55.381Z,5.40
2023-02-13T07:05:23.272Z,5.40
2023-02-13T07:07:51.128Z,5.40
2023-02-13T07:10:19.068Z,5.40
2023-02-13T07:12:53.928Z,5.40
2023-02-13T07:15:33.281Z,5.40
2023-02-13T07:18:01.591Z,5.40
2023-02-13T07:20:30.629Z,5.40
2023-02-13T07:22:59.897Z,5.40
2023-02-13T07:25:27.864Z,5.50
2023-02-13T07:27:55.858Z,5.50
2023-02-13T07:30:23.720Z,5.50
2023-02-13T07:32:53.005Z,5.50
2023-02-13T07:35:20.980Z,5.60
2023-02-13T07:37:48.907Z,5.50
2023-02-13T07:40:16.873Z,5.60
2023-02-13T07:42:44.761Z,5.50
2023-02-13T07:45:12.798Z,5.50
2023-02-13T07:47:40.760Z,5.50
2023-02-13T07:50:11.382Z,5.60
2023-02-13T07:52:39.514Z,5.60
2023-02-13T07:55:08.400Z,5.60
2023-02-13T07:57:36.272Z,5.60
2023-02-13T08:00:04.865Z,5.60
2023-02-13T08:02:39.369Z,5.60
2023-02-13T08:05:08.596Z,5.60
2023-02-13T08:07:38.339Z,5.60
2023-02-13T08:10:27.320Z,5.60
2023-02-13T08:12:56.043Z,5.70
2023-02-13T08:15:24.092Z,5.80
2023-02-13T08:17:52.009Z,5.80
2023-02-13T08:20:20.354Z,5.90
2023-02-13T08:22:49.641Z,5.90
2023-02-13T08:25:19.035Z,6.00
2023-02-13T08:27:47.070Z,6.00
2023-02-13T08:30:16.014Z,5.90
2023-02-13T08:32:53.928Z,5.90
2023-02-13T08:35:23.023Z,6.00
2023-02-13T08:37:52.344Z,6.00
2023-02-13T08:40:20.599Z,6.00
2023-02-13T08:42:48.602Z,6.00
2023-02-13T08:45:16.613Z,6.10
2023-02-13T08:47:44.452Z,6.20
2023-02-13T08:50:12.945Z,6.20
2023-02-13T08:52:40.809Z,6.30
2023-02-13T08:55:10.169Z,6.30
2023-02-13T08:57:38.218Z,6.40
2023-02-13T09:00:07.097Z,6.40
2023-02-13T09:02:34.997Z,6.50
2023-02-13T09:05:02.986Z,6.50
2023-02-13T09:07:30.876Z,6.60
2023-02-13T09:09:58.935Z,6.60
2023-02-13T09:12:28.180Z,6.60
2023-02-13T09:14:56.085Z,6.70
2023-02-13T09:17:23.994Z,6.70
2023-02-13T09:19:51.905Z,6.70
2023-02-13T09:22:19.850Z,6.70
2023-02-13T09:24:47.720Z,6.80
2023-02-13T09:27:15.569Z,6.80
2023-02-13T09:29:44.968Z,6.70
2023-02-13T09:32:13.192Z,6.70
2023-02-13T09:34:41.161Z,6.80
2023-02-13T09:37:09.118Z,6.90
2023-02-13T09:39:37.018Z,7.00
2023-02-13T09:42:25.440Z,7.00
2023-02-13T09:44:57.074Z,7.00
2023-02-13T09:47:30.886Z,7.00
2023-02-13T09:50:03.619Z,7.00
2023-02-13T09:52:35.500Z,7.00
2023-02-13T09:55:03.654Z,7.10
2023-02-13T09:57:36.547Z,7.20
2023-02-13T10:00:15.787Z,7.30
2023-02-13T10:03:08.209Z,7.30
2023-02-13T10:05:47.939Z,7.40
2023-02-13T10:08:28.331Z,7.50
2023-02-13T10:11:10.354Z,7.60
2023-02-13T10:14:01.506Z,7.70
2023-02-13T10:16:37.378Z,7.80
2023-02-13T10:19:12.906Z,7.80
2023-02-13T10:21:50.809Z,7.80
2023-02-13T10:24:31.065Z,7.90
2023-02-13T10:27:03.840Z,7.90
2023-02-13T10:29:57.626Z,8.00
2023-02-13T10:32:32.010Z,8.00
2023-02-13T10:35:03.009Z,8.00
2023-02-13T10:37:31.171Z,8.00
2023-02-13T10:39:59.184Z,7.90
2023-02-13T10:42:38.440Z,8.00
2023-02-13T10:45:25.527Z,8.10
2023-02-13T10:48:06.697Z,8.20
2023-02-13T10:50:42.817Z,8.10
2023-02-13T10:53:20.242Z,8.10
2023-02-13T10:56:02.782Z,8.10
2023-02-13T10:58:40.122Z,8.20
2023-02-13T11:01:15.302Z,8.30
2023-02-13T11:03:47.825Z,8.30
2023-02-13T11:06:20.247Z,8.40
2023-02-13T11:08:49.215Z,8.50
2023-02-13T11:11:37.296Z,8.40
2023-02-13T11:14:14.787Z,8.40
2023-02-13T11:16:48.895Z,8.40
2023-02-13T11:19:21.429Z,8.40
2023-02-13T11:21:56.082Z,8.40
2023-02-13T11:24:26.552Z,8.60
2023-02-13T11:26:59.488Z,8.70
2023-02-13T11:29:30.256Z,8.80
2023-02-13T11:32:12.780Z,8.80
2023-02-13T11:34:42.334Z,8.90
2023-02-13T11:37:18.187Z,9.00
2023-02-13T11:39:49.539Z,9.10
2023-02-13T11:42:23.045Z,9.20
2023-02-13T11:44:53.975Z,9.30
2023-02-13T11:47:39.645Z,9.30
2023-02-13T11:50:22.092Z,9.30
2023-02-13T11:52:59.067Z,9.40
2023-02-13T11:55:31.580Z,9.50
2023-02-13T11:58:01.459Z,9.50
2023-02-13T12:00:37.791Z,9.60
2023-02-13T12:03:26.522Z,9.50
2023-02-13T12:06:04.979Z,9.60
2023-02-13T12:08:35.174Z,9.70
2023-02-13T12:11:06.939Z,9.70
2023-02-13T12:13:38.948Z,9.70
2023-02-13T12:16:15.338Z,9.70
2023-02-13T12:18:45.922Z,9.70
2023-02-13T12:21:29.048Z,9.70
2023-02-13T12:24:04.188Z,9.80
2023-02-13T12:26:34.989Z,9.80
2023-02-13T12:29:22.975Z,9.90
2023-02-13T12:32:02.153Z,9.90
2023-02-13T12:34:52.880Z,9.90
2023-02-13T12:37:40.032Z,10.00
2023-02-13T12:40:42.265Z,10.00
2023-02-13T12:43:30.185Z,10.00
2023-02-13T12:46:05.927Z,10.10
2023-02-13T12:48:42.693Z,10.10
2023-02-13T12:51:38.560Z,10.20
2023-02-13T12:54:27.943Z,10.20
2023-02-13T12:57:08.426Z,10.20
2023-02-13T12:59:54.124Z,10.20
2023-02-13T13:02:42.507Z,10.20
2023-02-13T13:05:24.711Z,10.30
2023-02-13T13:08:08.677Z,10.30
2023-02-13T13:10:52.207Z,10.30
2023-02-13T13:13:32.448Z,10.20
2023-02-13T13:16:11.051Z,10.20
2023-02-13T13:18:54.196Z,10.10
2023-02-13T13:21:33.542Z,10.10
2023-02-13T13:24:07.141Z,10.10
2023-02-13T13:26:39.897Z,10.00
2023-02-13T13:29:12.984Z,9.90
2023-02-13T13:31:41.077Z,9.80
2023-02-13T13:34:17.469Z,9.80
2023-02-13T13:36:49.801Z,9.70
2023-02-13T13:39:31.482Z,9.70
2023-02-13T13:42:09.792Z,9.60
2023-02-13T13:45:05.279Z,9.60
2023-02-13T13:48:01.296Z,9.60
2023-02-13T13:50:31.917Z,9.60
2023-02-13T13:53:12.586Z,9.50
2023-02-13T13:56:09.383Z,9.40
2023-02-13T13:58:41.684Z,9.40
2023-02-13T14:01:22.345Z,9.30
2023-02-13T14:03:50.700Z,9.30
2023-02-13T14:06:20.590Z,9.20
2023-02-13T14:09:07.960Z,9.10
2023-02-13T14:11:46.956Z,9.10
2023-02-13T14:14:53.030Z,9.10
2023-02-13T14:17:54.929Z,9.10
2023-02-13T14:20:45.122Z,9.10
2023-02-13T14:23:23.610Z,9.10
2023-02-13T14:25:52.157Z,9.00
2023-02-13T14:28:26.787Z,9.00
2023-02-13T14:31:06.957Z,9.00
2023-02-13T14:33:35.253Z,9.00
2023-02-13T14:36:07.792Z,9.00
2023-02-13T14:38:36.687Z,9.00
2023-02-13T14:41:07.262Z,9.00
2023-02-13T14:43:39.033Z,9.00
2023-02-13T14:46:27.519Z,8.90
2023-02-13T14:49:01.203Z,8.90
2023-02-13T14:51:35.967Z,8.80
2023-02-13T14:54:16.820Z,8.80
2023-02-13T14:56:47.335Z,8.80
2023-02-13T14:59:18.745Z,8.80
2023-02-13T15:01:52.877Z,8.70
2023-02-13T15:04:26.969Z,8.80
2023-02-13T15:06:58.657Z,8.70
2023-02-13T15:09:33.391Z,8.70
2023-02-13T15:12:01.476Z,8.70
2023-02-13T15:14:33.748Z,8.60
2023-02-13T15:17:08.277Z,8.60
2023-02-13T15:19:39.372Z,8.50
2023-02-13T15:22:09.059Z,8.50
2023-02-13T15:24:44.654Z,8.50
2023-02-13T15:27:19.797Z,8.40
2023-02-13T15:30:16.457Z,8.40
2023-02-13T15:32:44.590Z,8.30
2023-02-13T15:35:24.032Z,8.20
2023-02-13T15:37:53.451Z,8.20
2023-02-13T15:40:27.366Z,8.20
2023-02-13T15:42:57.695Z,8.10
2023-02-13T15:45:28.157Z,8.00
2023-02-13T15:47:57.993Z,7.90
2023-02-13T15:50:32.258Z,7.80
2023-02-13T15:53:04.091Z,7.70
2023-02-13T15:55:36.246Z,7.60
2023-02-13T15:58:13.629Z,7.40
2023-02-13T16:00:43.386Z,7.40
2023-02-13T16:03:16.604Z,7.30
2023-02-13T16:05:47.556Z,7.20
2023-02-13T16:08:31.931Z,7.10
2023-02-13T16:11:21.023Z,6.90
2023-02-13T16:14:06.367Z,6.80
2023-02-13T16:16:43.092Z,6.70
2023-02-13T16:19:25.537Z,6.60
2023-02-13T16:21:54.931Z,6.40
2023-02-13T16:24:26.009Z,6.30
2023-02-13T16:26:54.629Z,6.20
2023-02-13T16:29:26.200Z,6.10
2023-02-13T16:32:03.481Z,6.00
2023-02-13T16:34:32.125Z,5.90
2023-02-13T16:37:00.039Z,5.80
2023-02-13T16:39:31.447Z,5.70
2023-02-13T16:42:00.907Z,5.60
2023-02-13T16:44:30.901Z,5.50
2023-02-13T16:47:01.470Z,5.40
2023-02-13T16:49:32.538Z,5.40
2023-02-13T16:52:08.412Z,5.30
2023-02-13T16:54:40.941Z,5.10
2023-02-13T16:57:22.051Z,5.00
2023-02-13T16:59:57.784Z,5.00
2023-02-13T17:02:27.711Z,4.90
2023-02-13T17:04:59.369Z,4.80
2023-02-13T17:07:29.107Z,4.70
2023-02-13T17:10:00.606Z,4.70
2023-02-13T17:12:30.718Z,4.60
2023-02-13T17:14:59.854Z,4.50
2023-02-13T17:17:30.412Z,4.50
2023-02-13T17:19:58.629Z,4.40
2023-02-13T17:22:36.392Z,4.40
2023-02-13T17:25:08.370Z,4.30
2023-02-13T17:27:36.493Z,4.30
2023-02-13T17:30:05.071Z,4.20
2023-02-13T17:32:33.027Z,4.20
2023-02-13T17:35:00.939Z,4.10
2023-02-13T17:37:30.079Z,4.10
2023-02-13T17:39:58.060Z,4.00
2023-02-13T17:42:28.990Z,4.00
2023-02-13T17:44:58.224Z,3.90
2023-02-13T17:47:26.968Z,3.90
2023-02-13T17:50:01.990Z,3.80
2023-02-13T17:52:32.882Z,3.70
2023-02-13T17:55:00.952Z,3.70
2023-02-13T17:57:30.292Z,3.70
2023-02-13T17:59:59.285Z,3.60
2023-02-13T18:02:27.929Z,3.50
2023-02-13T18:04:56.073Z,3.50
2023-02-13T18:07:24.193Z,3.40
2023-02-13T18:09:52.350Z,3.40
2023-02-13T18:12:23.602Z,3.40
2023-02-13T18:14:54.113Z,3.30
2023-02-13T18:17:22.137Z,3.30
2023-02-13T18:19:50.479Z,3.20
2023-02-13T18:22:18.486Z,3.20
2023-02-13T18:24:46.630Z,3.20
2023-02-13T18:27:15.860Z,3.20
2023-02-13T18:29:43.863Z,3.10
2023-02-13T18:32:13.532Z,3.10
2023-02-13T18:34:41.756Z,3.00
2023-02-13T18:37:11.381Z,3.00
2023-02-13T18:39:39.615Z,3.00
2023-02-13T18:42:07.821Z,2.90
2023-02-13T18:44:35.795Z,2.80
2023-02-13T18:47:03.799Z,2.80
2023-02-13T18:49:33.017Z,2.80
2023-02-13T18:52:01.692Z,2.70
2023-02-13T18:54:29.908Z,2.70
2023-02-13T18:56:57.892Z,2.60
2023-02-13T18:59:25.830Z,2.60
2023-02-13T19:01:53.744Z,2.50
2023-02-13T19:04:21.877Z,2.40
2023-02-13T19:06:51.135Z,2.40
2023-02-13T19:09:19.117Z,2.30
2023-02-13T19:11:48.541Z,2.30
2023-02-13T19:14:16.596Z,2.30
2023-02-13T19:16:44.797Z,2.30
2023-02-13T19:19:12.837Z,2.30
2023-02-13T19:21:41.159Z,2.30
2023-02-13T19:24:15.234Z,2.20
2023-02-13T19:26:43.749Z,2.20
2023-02-13T19:29:11.738Z,2.10
2023-02-13T19:31:39.855Z,2.10
2023-02-13T19:34:07.870Z,2.00
2023-02-13T19:36:35.836Z,2.00
2023-02-13T19:39:06.773Z,2.00
2023-02-13T19:41:36.103Z,2.00
2023-02-13T19:44:05.348Z,1.90
2023-02-13T19:46:33.702Z,1.90
2023-02-13T19:49:02.574Z,1.90
2023-02-13T19:51:32.396Z,1.90
2023-02-13T19:54:02.347Z,1.90
2023-02-13T19:56:31.927Z,1.80
2023-02-13T19:59:01.236Z,1.80
2023-02-13T20:01:30.371Z,1.70
2023-02-13T20:03:58.664Z,1.70
2023-02-13T20:06:28.791Z,1.60
2023-02-13T20:08:59.718Z,1.60
2023-02-13T20:11:27.906Z,1.60
2023-02-13T20:13:57.395Z,1.60
2023-02-13T20:16:26.620Z,1.60
2023-02-13T20:18:54.729Z,1.50
2023-02-13T20:21:22.780Z,1.50
2023-02-13T20:23:52.222Z,1.40
2023-02-13T20:26:20.621Z,1.40
2023-02-13T20:28:48.900Z,1.40
2023-02-13T20:31:18.944Z,1.40
2023-02-13T20:33:50.800Z,1.50
2023-02-13T20:36:20.827Z,1.50
2023-02-13T20:38:50.308Z,1.50
2023-02-13T20:41:20.066Z,1.60
2023-02-13T20:43:48.735Z,1.70
2023-02-13T20:46:17.345Z,1.80
2023-02-13T20:48:46.853Z,1.90
2023-02-13T20:51:17.758Z,2.00
2023-02-13T20:53:46.619Z,2.10
2023-02-13T20:56:16.263Z,2.10
2023-02-13T20:58:45.688Z,2.20
2023-02-13T21:01:14.823Z,2.20
2023-02-13T21:03:43.439Z,2.20
2023-02-13T21:06:12.272Z,2.20
2023-02-13T21:08:44.054Z,2.30
2023-02-13T21:11:11.975Z,2.30
2023-02-13T21:13:40.191Z,2.30
2023-02-13T21:16:10.327Z,2.30
2023-02-13T21:18:39.583Z,2.30
2023-02-13T21:21:09.128Z,2.30
2023-02-13T21:23:37.858Z,2.40
2023-02-13T21:26:10.547Z,2.40
2023-02-13T21:28:39.561Z,2.50
2023-02-13T21:31:08.764Z,2.50
2023-02-13T21:33:36.712Z,2.60
2023-02-13T21:36:06.801Z,2.60
2023-02-13T21:38:36.304Z,2.60
2023-02-13T21:41:11.661Z,2.60
2023-02-13T21:43:40.128Z,2.60
2023-02-13T21:46:09.381Z,2.60
2023-02-13T21:48:37.539Z,2.60
2023-02-13T21:51:09.874Z,2.70
2023-02-13T21:53:38.311Z,2.70
2023-02-13T21:56:08.931Z,2.70
2023-02-13T21:58:37.804Z,2.70
2023-02-13T22:01:23.940Z,2.70
2023-02-13T22:03:53.618Z,2.70
2023-02-13T22:06:21.915Z,2.80
2023-02-13T22:08:50.479Z,2.70
2023-02-13T22:11:19.668Z,2.70
2023-02-13T22:13:47.563Z,2.70
2023-02-13T22:16:16.687Z,2.70
2023-02-13T22:18:46.113Z,2.70
2023-02-13T22:21:15.625Z,2.70
2023-02-13T22:23:44.768Z,2.70
2023-02-13T22:26:17.214Z,2.70
2023-02-13T22:28:46.905Z,2.80
2023-02-13T22:31:16.114Z,2.80
2023-02-13T22:33:47.572Z,2.70
2023-02-13T22:36:22.124Z,2.70
2023-02-13T22:38:51.078Z,2.80
2023-02-13T22:41:21.543Z,2.70
2023-02-13T22:43:51.015Z,2.70
2023-02-13T22:46:21.501Z,2.70
2023-02-13T22:48:52.020Z,2.70
2023-02-13T22:51:21.551Z,2.70
2023-02-13T22:53:49.842Z,2.70
2023-02-13T22:56:17.825Z,2.70
2023-02-13T22:58:45.687Z,2.70
2023-02-13T23:01:17.932Z,2.70
2023-02-13T23:03:46.506Z,2.70
2023-02-13T23:06:16.092Z,2.70
2023-02-13T23:08:44.498Z,2.70
2023-02-13T23:11:32.193Z,2.70
2023-02-13T23:14:00.441Z,2.70
2023-02-13T23:16:50.604Z,2.70
2023-02-13T23:19:17.589Z,2.70
2023-02-13T23:21:45.397Z,2.70
2023-02-13T23:24:13.268Z,2.70
2023-02-13T23:26:41.189Z,2.70
2023-02-13T23:29:09.489Z,2.70
2023-02-13T23:31:39.033Z,2.60
2023-02-13T23:34:06.898Z,2.70
2023-02-13T23:36:34.869Z,2.70
2023-02-13T23:39:02.773Z,2.70
2023-02-13T23:41:30.678Z,2.70
2023-02-13T23:43:58.569Z,2.70
2023-02-13T23:46:26.581Z,2.70
2023-02-13T23:48:55.838Z,2.70
2023-02-13T23:51:25.609Z,2.70
2023-02-13T23:53:56.096Z,2.70
2023-02-13T23:56:24.591Z,2.70
2023-02-13T23:58:52.547Z,2.70
